sensor_id;sensor_type;location;lat;lon;timestamp;P1;durP1;ratioP1;P2;durP2;ratioP2
52878;SDS011;38747;53.140;6.498;2023-04-12T00:00:58;6.40;;;1.50;;
52878;SDS011;38747;53.140;6.498;2023-04-12T00:03:25;6.78;;;1.63;;
52878;SDS011;38747;53.140;6.498;2023-04-12T00:05:51;7.22;;;1.40;;
52878;SDS011;38747;53.140;6.498;2023-04-12T00:08:20;7.50;;;1.27;;
52878;SDS011;38747;53.140;6.498;2023-04-12T00:10:50;7.25;;;1.60;;
52878;SDS011;38747;53.140;6.498;2023-04-12T00:13:17;10.00;;;1.90;;
52878;SDS011;38747;53.140;6.498;2023-04-12T00:15:43;10.63;;;1.60;;
52878;SDS011;38747;53.140;6.498;2023-04-12T00:18:09;9.27;;;1.70;;
52878;SDS011;38747;53.140;6.498;2023-04-12T00:20:35;8.60;;;1.53;;
52878;SDS011;38747;53.140;6.498;2023-04-12T00:23:01;8.68;;;1.60;;
52878;SDS011;38747;53.140;6.498;2023-04-12T00:25:27;10.17;;;1.90;;
52878;SDS011;38747;53.140;6.498;2023-04-12T00:27:52;8.25;;;1.92;;
52878;SDS011;38747;53.140;6.498;2023-04-12T00:30:18;8.23;;;1.60;;
52878;SDS011;38747;53.140;6.498;2023-04-12T00:32:44;8.13;;;1.70;;
52878;SDS011;38747;53.140;6.498;2023-04-12T00:35:10;8.67;;;1.70;;
52878;SDS011;38747;53.140;6.498;2023-04-12T00:37:36;8.30;;;1.50;;
52878;SDS011;38747;53.140;6.498;2023-04-12T00:40:02;9.35;;;1.60;;
52878;SDS011;38747;53.140;6.498;2023-04-12T00:42:28;9.57;;;1.80;;
52878;SDS011;38747;53.140;6.498;2023-04-12T00:44:53;8.15;;;1.95;;
52878;SDS011;38747;53.140;6.498;2023-04-12T00:47:19;8.97;;;1.60;;
52878;SDS011;38747;53.140;6.498;2023-04-12T00:49:45;9.25;;;2.10;;
52878;SDS011;38747;53.140;6.498;2023-04-12T00:52:11;9.30;;;1.70;;
52878;SDS011;38747;53.140;6.498;2023-04-12T00:54:39;7.18;;;1.88;;
52878;SDS011;38747;53.140;6.498;2023-04-12T00:57:07;10.57;;;1.95;;
52878;SDS011;38747;53.140;6.498;2023-04-12T00:59:33;9.50;;;2.20;;
52878;SDS011;38747;53.140;6.498;2023-04-12T01:01:59;10.17;;;1.70;;
52878;SDS011;38747;53.140;6.498;2023-04-12T01:04:25;9.38;;;1.90;;
52878;SDS011;38747;53.140;6.498;2023-04-12T01:15:04;11.25;;;1.92;;
52878;SDS011;38747;53.140;6.498;2023-04-12T01:17:34;7.10;;;1.75;;
52878;SDS011;38747;53.140;6.498;2023-04-12T01:20:08;9.73;;;2.08;;
52878;SDS011;38747;53.140;6.498;2023-04-12T01:22:53;6.60;;;1.73;;
52878;SDS011;38747;53.140;6.498;2023-04-12T01:27:56;8.68;;;1.58;;
52878;SDS011;38747;53.140;6.498;2023-04-12T01:30:26;8.45;;;1.83;;
52878;SDS011;38747;53.140;6.498;2023-04-12T01:32:53;8.55;;;1.90;;
52878;SDS011;38747;53.140;6.498;2023-04-12T01:35:21;9.30;;;1.97;;
52878;SDS011;38747;53.140;6.498;2023-04-12T01:37:51;8.48;;;1.95;;
52878;SDS011;38747;53.140;6.498;2023-04-12T01:40:18;8.93;;;2.25;;
52878;SDS011;38747;53.140;6.498;2023-04-12T01:42:44;10.57;;;2.60;;
52878;SDS011;38747;53.140;6.498;2023-04-12T01:45:10;11.87;;;2.03;;
52878;SDS011;38747;53.140;6.498;2023-04-12T01:47:35;9.10;;;1.95;;
52878;SDS011;38747;53.140;6.498;2023-04-12T01:53:13;7.07;;;1.92;;
52878;SDS011;38747;53.140;6.498;2023-04-12T01:55:44;6.90;;;2.00;;
52878;SDS011;38747;53.140;6.498;2023-04-12T01:58:14;6.67;;;1.97;;
52878;SDS011;38747;53.140;6.498;2023-04-12T02:00:43;9.32;;;2.08;;
52878;SDS011;38747;53.140;6.498;2023-04-12T02:03:10;8.55;;;2.05;;
52878;SDS011;38747;53.140;6.498;2023-04-12T02:05:37;11.35;;;2.30;;
52878;SDS011;38747;53.140;6.498;2023-04-12T02:08:03;8.27;;;1.90;;
52878;SDS011;38747;53.140;6.498;2023-04-12T02:10:30;9.80;;;2.00;;
52878;SDS011;38747;53.140;6.498;2023-04-12T02:12:59;9.77;;;2.08;;
52878;SDS011;38747;53.140;6.498;2023-04-12T02:15:28;7.00;;;1.77;;
52878;SDS011;38747;53.140;6.498;2023-04-12T02:17:54;10.73;;;2.25;;
52878;SDS011;38747;53.140;6.498;2023-04-12T02:20:21;9.00;;;1.83;;
52878;SDS011;38747;53.140;6.498;2023-04-12T02:22:48;7.38;;;1.80;;
52878;SDS011;38747;53.140;6.498;2023-04-12T02:25:14;8.15;;;1.90;;
52878;SDS011;38747;53.140;6.498;2023-04-12T02:27:42;7.13;;;1.40;;
52878;SDS011;38747;53.140;6.498;2023-04-12T02:30:08;8.55;;;1.60;;
52878;SDS011;38747;53.140;6.498;2023-04-12T02:32:34;9.70;;;2.07;;
52878;SDS011;38747;53.140;6.498;2023-04-12T02:35:08;5.85;;;1.38;;
52878;SDS011;38747;53.140;6.498;2023-04-12T02:37:34;7.22;;;1.70;;
52878;SDS011;38747;53.140;6.498;2023-04-12T02:40:01;8.45;;;1.60;;
52878;SDS011;38747;53.140;6.498;2023-04-12T02:42:30;7.47;;;1.63;;
52878;SDS011;38747;53.140;6.498;2023-04-12T02:44:55;7.40;;;1.67;;
52878;SDS011;38747;53.140;6.498;2023-04-12T02:47:21;6.20;;;1.88;;
52878;SDS011;38747;53.140;6.498;2023-04-12T02:49:52;8.97;;;2.13;;
52878;SDS011;38747;53.140;6.498;2023-04-12T02:52:18;5.80;;;1.58;;
52878;SDS011;38747;53.140;6.498;2023-04-12T02:54:43;5.33;;;1.60;;
52878;SDS011;38747;53.140;6.498;2023-04-12T02:57:09;7.90;;;1.60;;
52878;SDS011;38747;53.140;6.498;2023-04-12T02:59:40;6.30;;;1.85;;
52878;SDS011;38747;53.140;6.498;2023-04-12T03:02:05;7.60;;;1.83;;
52878;SDS011;38747;53.140;6.498;2023-04-12T03:04:32;6.50;;;1.55;;
52878;SDS011;38747;53.140;6.498;2023-04-12T03:06:57;9.23;;;1.60;;
52878;SDS011;38747;53.140;6.498;2023-04-12T03:09:23;7.50;;;1.90;;
52878;SDS011;38747;53.140;6.498;2023-04-12T03:11:49;7.72;;;1.80;;
52878;SDS011;38747;53.140;6.498;2023-04-12T03:14:22;6.10;;;1.83;;
52878;SDS011;38747;53.140;6.498;2023-04-12T03:16:48;7.27;;;1.60;;
52878;SDS011;38747;53.140;6.498;2023-04-12T03:19:15;7.38;;;1.70;;
52878;SDS011;38747;53.140;6.498;2023-04-12T03:21:41;9.35;;;1.80;;
52878;SDS011;38747;53.140;6.498;2023-04-12T03:24:10;6.83;;;1.50;;
52878;SDS011;38747;53.140;6.498;2023-04-12T03:26:35;8.40;;;1.80;;
52878;SDS011;38747;53.140;6.498;2023-04-12T03:29:02;5.30;;;1.50;;
52878;SDS011;38747;53.140;6.498;2023-04-12T03:31:32;7.57;;;1.83;;
52878;SDS011;38747;53.140;6.498;2023-04-12T03:33:58;11.23;;;1.90;;
52878;SDS011;38747;53.140;6.498;2023-04-12T03:36:25;6.15;;;1.50;;
52878;SDS011;38747;53.140;6.498;2023-04-12T03:38:51;6.63;;;1.40;;
52878;SDS011;38747;53.140;6.498;2023-04-12T03:41:17;10.77;;;1.65;;
52878;SDS011;38747;53.140;6.498;2023-04-12T03:43:45;7.90;;;1.60;;
52878;SDS011;38747;53.140;6.498;2023-04-12T03:46:11;7.50;;;1.50;;
52878;SDS011;38747;53.140;6.498;2023-04-12T03:48:37;6.57;;;1.58;;
52878;SDS011;38747;53.140;6.498;2023-04-12T03:51:03;9.77;;;1.80;;
52878;SDS011;38747;53.140;6.498;2023-04-12T03:53:32;4.93;;;1.40;;
52878;SDS011;38747;53.140;6.498;2023-04-12T03:55:58;6.28;;;1.35;;
52878;SDS011;38747;53.140;6.498;2023-04-12T03:58:24;7.83;;;1.60;;
52878;SDS011;38747;53.140;6.498;2023-04-12T04:00:49;7.95;;;1.48;;
52878;SDS011;38747;53.140;6.498;2023-04-12T04:03:15;6.82;;;1.60;;
52878;SDS011;38747;53.140;6.498;2023-04-12T04:05:42;7.47;;;1.60;;
52878;SDS011;38747;53.140;6.498;2023-04-12T04:08:07;8.77;;;1.70;;
52878;SDS011;38747;53.140;6.498;2023-04-12T04:10:34;6.78;;;1.25;;
52878;SDS011;38747;53.140;6.498;2023-04-12T04:13:00;6.63;;;1.53;;
52878;SDS011;38747;53.140;6.498;2023-04-12T04:15:25;6.57;;;1.60;;
52878;SDS011;38747;53.140;6.498;2023-04-12T04:17:51;7.22;;;1.50;;
52878;SDS011;38747;53.140;6.498;2023-04-12T04:20:17;6.33;;;1.60;;
52878;SDS011;38747;53.140;6.498;2023-04-12T04:22:43;7.40;;;1.73;;
52878;SDS011;38747;53.140;6.498;2023-04-12T04:25:12;7.78;;;1.65;;
52878;SDS011;38747;53.140;6.498;2023-04-12T04:27:41;9.55;;;2.03;;
52878;SDS011;38747;53.140;6.498;2023-04-12T04:30:09;9.47;;;2.10;;
52878;SDS011;38747;53.140;6.498;2023-04-12T04:32:36;9.15;;;2.10;;
52878;SDS011;38747;53.140;6.498;2023-04-12T04:35:05;8.98;;;2.30;;
52878;SDS011;38747;53.140;6.498;2023-04-12T04:37:31;7.25;;;2.03;;
52878;SDS011;38747;53.140;6.498;2023-04-12T04:40:01;11.70;;;2.78;;
52878;SDS011;38747;53.140;6.498;2023-04-12T04:42:32;8.00;;;1.93;;
52878;SDS011;38747;53.140;6.498;2023-04-12T04:44:57;6.80;;;2.40;;
52878;SDS011;38747;53.140;6.498;2023-04-12T04:47:27;6.43;;;1.90;;
52878;SDS011;38747;53.140;6.498;2023-04-12T04:49:54;7.40;;;1.73;;
52878;SDS011;38747;53.140;6.498;2023-04-12T04:52:22;8.35;;;2.03;;
52878;SDS011;38747;53.140;6.498;2023-04-12T04:54:48;7.90;;;1.95;;
52878;SDS011;38747;53.140;6.498;2023-04-12T04:57:13;6.25;;;2.10;;
52878;SDS011;38747;53.140;6.498;2023-04-12T04:59:39;8.83;;;2.07;;
52878;SDS011;38747;53.140;6.498;2023-04-12T05:02:05;8.77;;;2.30;;
52878;SDS011;38747;53.140;6.498;2023-04-12T05:04:31;9.25;;;2.30;;
52878;SDS011;38747;53.140;6.498;2023-04-12T05:06:56;7.67;;;2.10;;
52878;SDS011;38747;53.140;6.498;2023-04-12T05:09:22;7.77;;;2.10;;
52878;SDS011;38747;53.140;6.498;2023-04-12T05:11:48;7.03;;;1.90;;
52878;SDS011;38747;53.140;6.498;2023-04-12T05:14:13;6.60;;;1.93;;
52878;SDS011;38747;53.140;6.498;2023-04-12T05:16:39;7.13;;;2.30;;
52878;SDS011;38747;53.140;6.498;2023-04-12T05:19:05;8.57;;;2.23;;
52878;SDS011;38747;53.140;6.498;2023-04-12T05:21:31;7.70;;;2.28;;
52878;SDS011;38747;53.140;6.498;2023-04-12T05:23:57;9.20;;;2.50;;
52878;SDS011;38747;53.140;6.498;2023-04-12T05:26:23;7.93;;;2.20;;
52878;SDS011;38747;53.140;6.498;2023-04-12T05:28:49;7.50;;;2.30;;
52878;SDS011;38747;53.140;6.498;2023-04-12T05:31:15;11.63;;;2.35;;
52878;SDS011;38747;53.140;6.498;2023-04-12T05:33:42;8.77;;;2.38;;
52878;SDS011;38747;53.140;6.498;2023-04-12T05:36:08;8.03;;;2.50;;
52878;SDS011;38747;53.140;6.498;2023-04-12T05:38:35;11.05;;;2.75;;
52878;SDS011;38747;53.140;6.498;2023-04-12T05:41:00;9.48;;;2.53;;
52878;SDS011;38747;53.140;6.498;2023-04-12T05:43:28;9.30;;;2.60;;
52878;SDS011;38747;53.140;6.498;2023-04-12T05:45:54;10.63;;;3.13;;
52878;SDS011;38747;53.140;6.498;2023-04-12T05:48:20;7.82;;;2.55;;
52878;SDS011;38747;53.140;6.498;2023-04-12T05:50:49;7.77;;;2.63;;
52878;SDS011;38747;53.140;6.498;2023-04-12T05:53:15;7.30;;;2.30;;
52878;SDS011;38747;53.140;6.498;2023-04-12T05:55:44;8.57;;;2.93;;
52878;SDS011;38747;53.140;6.498;2023-04-12T05:58:10;6.85;;;2.40;;
52878;SDS011;38747;53.140;6.498;2023-04-12T06:00:35;7.63;;;2.88;;
52878;SDS011;38747;53.140;6.498;2023-04-12T06:03:02;7.70;;;2.73;;
52878;SDS011;38747;53.140;6.498;2023-04-12T06:05:28;7.13;;;2.92;;
52878;SDS011;38747;53.140;6.498;2023-04-12T06:07:54;6.45;;;2.47;;
52878;SDS011;38747;53.140;6.498;2023-04-12T06:10:20;10.67;;;2.90;;
52878;SDS011;38747;53.140;6.498;2023-04-12T06:12:45;8.83;;;2.67;;
52878;SDS011;38747;53.140;6.498;2023-04-12T06:15:11;9.00;;;2.30;;
52878;SDS011;38747;53.140;6.498;2023-04-12T06:17:37;8.65;;;2.50;;
52878;SDS011;38747;53.140;6.498;2023-04-12T06:20:03;8.17;;;2.23;;
52878;SDS011;38747;53.140;6.498;2023-04-12T06:22:35;9.82;;;2.47;;
52878;SDS011;38747;53.140;6.498;2023-04-12T06:25:01;8.75;;;2.55;;
52878;SDS011;38747;53.140;6.498;2023-04-12T06:27:28;9.07;;;2.50;;
52878;SDS011;38747;53.140;6.498;2023-04-12T06:29:53;7.05;;;2.45;;
52878;SDS011;38747;53.140;6.498;2023-04-12T06:32:19;8.40;;;2.47;;
52878;SDS011;38747;53.140;6.498;2023-04-12T06:34:45;10.00;;;2.77;;
52878;SDS011;38747;53.140;6.498;2023-04-12T06:37:10;7.30;;;2.30;;
52878;SDS011;38747;53.140;6.498;2023-04-12T06:39:36;7.20;;;2.50;;
52878;SDS011;38747;53.140;6.498;2023-04-12T06:42:02;9.27;;;2.30;;
52878;SDS011;38747;53.140;6.498;2023-04-12T06:44:28;7.33;;;2.50;;
52878;SDS011;38747;53.140;6.498;2023-04-12T06:46:53;7.40;;;2.30;;
52878;SDS011;38747;53.140;6.498;2023-04-12T06:49:19;6.53;;;2.37;;
52878;SDS011;38747;53.140;6.498;2023-04-12T06:51:45;6.38;;;2.40;;
52878;SDS011;38747;53.140;6.498;2023-04-12T06:54:11;9.43;;;2.80;;
52878;SDS011;38747;53.140;6.498;2023-04-12T06:56:37;9.50;;;2.42;;
52878;SDS011;38747;53.140;6.498;2023-04-12T06:59:03;7.25;;;2.22;;
52878;SDS011;38747;53.140;6.498;2023-04-12T07:01:29;8.27;;;2.55;;
52878;SDS011;38747;53.140;6.498;2023-04-12T07:03:55;8.93;;;2.57;;
52878;SDS011;38747;53.140;6.498;2023-04-12T07:06:21;7.50;;;2.38;;
52878;SDS011;38747;53.140;6.498;2023-04-12T07:08:46;6.93;;;2.50;;
52878;SDS011;38747;53.140;6.498;2023-04-12T07:11:12;8.00;;;3.00;;
52878;SDS011;38747;53.140;6.498;2023-04-12T07:13:38;8.90;;;2.80;;
52878;SDS011;38747;53.140;6.498;2023-04-12T07:16:03;7.60;;;2.70;;
52878;SDS011;38747;53.140;6.498;2023-04-12T07:18:29;6.80;;;2.57;;
52878;SDS011;38747;53.140;6.498;2023-04-12T07:20:57;6.20;;;2.40;;
52878;SDS011;38747;53.140;6.498;2023-04-12T07:23:23;8.05;;;2.90;;
52878;SDS011;38747;53.140;6.498;2023-04-12T07:25:49;6.05;;;2.60;;
52878;SDS011;38747;53.140;6.498;2023-04-12T07:28:15;6.53;;;2.67;;
52878;SDS011;38747;53.140;6.498;2023-04-12T07:30:43;7.23;;;2.80;;
52878;SDS011;38747;53.140;6.498;2023-04-12T07:33:09;7.32;;;2.60;;
52878;SDS011;38747;53.140;6.498;2023-04-12T07:35:35;7.03;;;2.60;;
52878;SDS011;38747;53.140;6.498;2023-04-12T07:38:00;6.43;;;2.55;;
52878;SDS011;38747;53.140;6.498;2023-04-12T07:40:26;6.13;;;2.50;;
52878;SDS011;38747;53.140;6.498;2023-04-12T07:42:52;6.68;;;2.60;;
52878;SDS011;38747;53.140;6.498;2023-04-12T07:45:18;8.23;;;3.00;;
52878;SDS011;38747;53.140;6.498;2023-04-12T07:47:44;7.97;;;2.87;;
52878;SDS011;38747;53.140;6.498;2023-04-12T07:50:13;7.00;;;2.95;;
52878;SDS011;38747;53.140;6.498;2023-04-12T07:52:39;6.32;;;3.13;;
52878;SDS011;38747;53.140;6.498;2023-04-12T07:55:05;6.97;;;2.80;;
52878;SDS011;38747;53.140;6.498;2023-04-12T07:57:30;8.63;;;3.10;;
52878;SDS011;38747;53.140;6.498;2023-04-12T07:59:56;6.43;;;3.17;;
52878;SDS011;38747;53.140;6.498;2023-04-12T08:02:22;8.27;;;3.08;;
52878;SDS011;38747;53.140;6.498;2023-04-12T08:04:51;8.35;;;3.10;;
52878;SDS011;38747;53.140;6.498;2023-04-12T08:07:19;7.57;;;3.07;;
52878;SDS011;38747;53.140;6.498;2023-04-12T08:09:48;7.28;;;3.20;;
52878;SDS011;38747;53.140;6.498;2023-04-12T08:12:15;7.20;;;3.00;;
52878;SDS011;38747;53.140;6.498;2023-04-12T08:14:40;8.00;;;3.10;;
52878;SDS011;38747;53.140;6.498;2023-04-12T08:17:06;7.33;;;3.07;;
52878;SDS011;38747;53.140;6.498;2023-04-12T08:19:32;7.22;;;3.47;;
52878;SDS011;38747;53.140;6.498;2023-04-12T08:21:59;6.97;;;2.90;;
52878;SDS011;38747;53.140;6.498;2023-04-12T08:24:25;6.18;;;3.33;;
52878;SDS011;38747;53.140;6.498;2023-04-12T08:26:51;7.50;;;3.37;;
52878;SDS011;38747;53.140;6.498;2023-04-12T08:29:17;9.10;;;3.28;;
52878;SDS011;38747;53.140;6.498;2023-04-12T08:31:43;6.63;;;3.27;;
52878;SDS011;38747;53.140;6.498;2023-04-12T08:34:08;6.25;;;3.15;;
52878;SDS011;38747;53.140;6.498;2023-04-12T08:36:34;7.00;;;3.20;;
52878;SDS011;38747;53.140;6.498;2023-04-12T08:39:00;7.53;;;3.47;;
52878;SDS011;38747;53.140;6.498;2023-04-12T08:41:26;6.32;;;3.13;;
52878;SDS011;38747;53.140;6.498;2023-04-12T08:43:52;6.68;;;3.67;;
52878;SDS011;38747;53.140;6.498;2023-04-12T08:46:21;6.00;;;3.28;;
52878;SDS011;38747;53.140;6.498;2023-04-12T08:48:47;7.20;;;3.80;;
52878;SDS011;38747;53.140;6.498;2023-04-12T08:51:18;8.70;;;3.75;;
52878;SDS011;38747;53.140;6.498;2023-04-12T08:53:45;7.00;;;3.60;;
52878;SDS011;38747;53.140;6.498;2023-04-12T08:56:11;7.45;;;4.00;;
52878;SDS011;38747;53.140;6.498;2023-04-12T08:58:39;6.28;;;3.70;;
52878;SDS011;38747;53.140;6.498;2023-04-12T09:01:10;6.47;;;3.77;;
52878;SDS011;38747;53.140;6.498;2023-04-12T09:03:42;6.68;;;4.10;;
52878;SDS011;38747;53.140;6.498;2023-04-12T09:06:09;8.55;;;4.88;;
52878;SDS011;38747;53.140;6.498;2023-04-12T09:08:36;7.30;;;4.18;;
52878;SDS011;38747;53.140;6.498;2023-04-12T09:11:11;8.20;;;4.60;;
52878;SDS011;38747;53.140;6.498;2023-04-12T09:13:45;7.95;;;4.50;;
52878;SDS011;38747;53.140;6.498;2023-04-12T09:16:11;8.20;;;4.10;;
52878;SDS011;38747;53.140;6.498;2023-04-12T09:18:47;7.35;;;4.70;;
52878;SDS011;38747;53.140;6.498;2023-04-12T09:21:14;7.20;;;4.67;;
52878;SDS011;38747;53.140;6.498;2023-04-12T09:23:40;7.45;;;4.30;;
52878;SDS011;38747;53.140;6.498;2023-04-12T09:26:08;7.93;;;4.22;;
52878;SDS011;38747;53.140;6.498;2023-04-12T09:28:37;7.18;;;4.35;;
52878;SDS011;38747;53.140;6.498;2023-04-12T09:31:14;8.10;;;4.70;;
52878;SDS011;38747;53.140;6.498;2023-04-12T09:33:43;7.35;;;4.65;;
52878;SDS011;38747;53.140;6.498;2023-04-12T09:36:10;7.25;;;4.75;;
52878;SDS011;38747;53.140;6.498;2023-04-12T09:38:40;8.88;;;4.88;;
52878;SDS011;38747;53.140;6.498;2023-04-12T09:41:23;9.63;;;5.22;;
52878;SDS011;38747;53.140;6.498;2023-04-12T09:43:49;8.27;;;5.50;;
52878;SDS011;38747;53.140;6.498;2023-04-12T09:46:15;8.30;;;5.63;;
52878;SDS011;38747;53.140;6.498;2023-04-12T09:48:47;10.07;;;5.72;;
52878;SDS011;38747;53.140;6.498;2023-04-12T09:54:00;9.43;;;5.95;;
52878;SDS011;38747;53.140;6.498;2023-04-12T09:56:30;10.50;;;5.80;;
52878;SDS011;38747;53.140;6.498;2023-04-12T09:59:01;12.18;;;6.45;;
52878;SDS011;38747;53.140;6.498;2023-04-12T10:01:29;9.07;;;5.80;;
52878;SDS011;38747;53.140;6.498;2023-04-12T10:04:00;9.40;;;5.50;;
52878;SDS011;38747;53.140;6.498;2023-04-12T10:06:26;11.02;;;5.22;;
52878;SDS011;38747;53.140;6.498;2023-04-12T10:08:52;10.88;;;5.07;;
52878;SDS011;38747;53.140;6.498;2023-04-12T10:11:19;7.63;;;4.90;;
52878;SDS011;38747;53.140;6.498;2023-04-12T10:13:44;9.57;;;4.47;;
52878;SDS011;38747;53.140;6.498;2023-04-12T10:16:12;7.85;;;4.60;;
52878;SDS011;38747;53.140;6.498;2023-04-12T10:18:39;8.40;;;4.30;;
52878;SDS011;38747;53.140;6.498;2023-04-12T10:21:07;9.90;;;4.82;;
52878;SDS011;38747;53.140;6.498;2023-04-12T10:23:33;8.80;;;4.25;;
52878;SDS011;38747;53.140;6.498;2023-04-12T10:25:59;7.88;;;3.58;;
52878;SDS011;38747;53.140;6.498;2023-04-12T10:28:28;8.30;;;3.73;;
52878;SDS011;38747;53.140;6.498;2023-04-12T10:30:57;8.50;;;3.42;;
52878;SDS011;38747;53.140;6.498;2023-04-12T10:33:24;13.73;;;3.40;;
52878;SDS011;38747;53.140;6.498;2023-04-12T10:35:52;8.80;;;2.90;;
52878;SDS011;38747;53.140;6.498;2023-04-12T10:38:19;6.82;;;2.88;;
52878;SDS011;38747;53.140;6.498;2023-04-12T10:43:40;7.68;;;2.70;;
52878;SDS011;38747;53.140;6.498;2023-04-12T10:49:09;9.43;;;2.45;;
52878;SDS011;38747;53.140;6.498;2023-04-12T10:51:38;10.73;;;2.85;;
52878;SDS011;38747;53.140;6.498;2023-04-12T10:56:37;11.52;;;2.53;;
52878;SDS011;38747;53.140;6.498;2023-04-12T10:59:05;11.10;;;2.55;;
52878;SDS011;38747;53.140;6.498;2023-04-12T11:01:32;8.85;;;2.25;;
52878;SDS011;38747;53.140;6.498;2023-04-12T11:04:18;8.55;;;2.40;;
52878;SDS011;38747;53.140;6.498;2023-04-12T11:06:49;9.30;;;2.10;;
52878;SDS011;38747;53.140;6.498;2023-04-12T11:09:22;11.68;;;2.50;;
52878;SDS011;38747;53.140;6.498;2023-04-12T11:14:34;7.50;;;2.20;;
52878;SDS011;38747;53.140;6.498;2023-04-12T11:19:43;8.23;;;2.30;;
52878;SDS011;38747;53.140;6.498;2023-04-12T11:22:38;9.23;;;2.50;;
52878;SDS011;38747;53.140;6.498;2023-04-12T11:25:05;9.73;;;2.03;;
52878;SDS011;38747;53.140;6.498;2023-04-12T11:27:30;7.97;;;1.92;;
52878;SDS011;38747;53.140;6.498;2023-04-12T11:29:57;10.80;;;2.30;;
52878;SDS011;38747;53.140;6.498;2023-04-12T11:32:25;8.77;;;2.10;;
52878;SDS011;38747;53.140;6.498;2023-04-12T11:34:52;12.13;;;2.65;;
52878;SDS011;38747;53.140;6.498;2023-04-12T11:37:20;9.38;;;2.50;;
52878;SDS011;38747;53.140;6.498;2023-04-12T11:39:47;10.63;;;2.38;;
52878;SDS011;38747;53.140;6.498;2023-04-12T11:42:17;11.10;;;2.10;;
52878;SDS011;38747;53.140;6.498;2023-04-12T11:44:44;9.50;;;1.88;;
52878;SDS011;38747;53.140;6.498;2023-04-12T11:47:11;10.50;;;2.20;;
52878;SDS011;38747;53.140;6.498;2023-04-12T11:49:42;9.10;;;1.83;;
52878;SDS011;38747;53.140;6.498;2023-04-12T11:52:16;10.30;;;1.38;;
52878;SDS011;38747;53.140;6.498;2023-04-12T11:54:43;11.23;;;1.80;;
52878;SDS011;38747;53.140;6.498;2023-04-12T11:57:10;9.70;;;1.45;;
52878;SDS011;38747;53.140;6.498;2023-04-12T11:59:37;9.07;;;1.67;;
52878;SDS011;38747;53.140;6.498;2023-04-12T12:02:04;8.00;;;1.40;;
52878;SDS011;38747;53.140;6.498;2023-04-12T12:04:32;11.20;;;1.47;;
52878;SDS011;38747;53.140;6.498;2023-04-12T12:06:58;11.85;;;1.58;;
52878;SDS011;38747;53.140;6.498;2023-04-12T12:09:25;11.57;;;1.52;;
52878;SDS011;38747;53.140;6.498;2023-04-12T12:11:51;11.20;;;1.80;;
52878;SDS011;38747;53.140;6.498;2023-04-12T12:14:18;11.32;;;1.67;;
52878;SDS011;38747;53.140;6.498;2023-04-12T12:16:52;10.40;;;1.70;;
52878;SDS011;38747;53.140;6.498;2023-04-12T12:19:38;13.88;;;1.73;;
52878;SDS011;38747;53.140;6.498;2023-04-12T12:24:48;10.65;;;1.58;;
52878;SDS011;38747;53.140;6.498;2023-04-12T12:27:20;12.32;;;1.92;;
52878;SDS011;38747;53.140;6.498;2023-04-12T12:29:48;14.17;;;1.53;;
52878;SDS011;38747;53.140;6.498;2023-04-12T12:32:16;14.63;;;1.95;;
52878;SDS011;38747;53.140;6.498;2023-04-12T12:34:55;16.00;;;1.70;;
52878;SDS011;38747;53.140;6.498;2023-04-12T12:37:22;13.02;;;1.90;;
52878;SDS011;38747;53.140;6.498;2023-04-12T12:40:02;12.82;;;1.77;;
52878;SDS011;38747;53.140;6.498;2023-04-12T12:45:10;15.63;;;1.95;;
52878;SDS011;38747;53.140;6.498;2023-04-12T12:47:46;12.20;;;1.70;;
52878;SDS011;38747;53.140;6.498;2023-04-12T12:50:13;10.32;;;1.73;;
52878;SDS011;38747;53.140;6.498;2023-04-12T12:52:41;14.35;;;1.60;;
52878;SDS011;38747;53.140;6.498;2023-04-12T12:55:09;9.43;;;1.40;;
52878;SDS011;38747;53.140;6.498;2023-04-12T12:57:35;7.93;;;1.15;;
52878;SDS011;38747;53.140;6.498;2023-04-12T13:00:01;12.20;;;1.90;;
52878;SDS011;38747;53.140;6.498;2023-04-12T13:02:28;9.50;;;1.70;;
52878;SDS011;38747;53.140;6.498;2023-04-12T13:04:54;9.40;;;1.50;;
52878;SDS011;38747;53.140;6.498;2023-04-12T13:07:20;8.63;;;1.70;;
52878;SDS011;38747;53.140;6.498;2023-04-12T13:09:46;9.93;;;1.93;;
52878;SDS011;38747;53.140;6.498;2023-04-12T13:12:12;6.72;;;1.35;;
52878;SDS011;38747;53.140;6.498;2023-04-12T13:14:39;11.93;;;1.67;;
52878;SDS011;38747;53.140;6.498;2023-04-12T13:17:06;7.87;;;1.03;;
52878;SDS011;38747;53.140;6.498;2023-04-12T13:19:31;10.82;;;1.45;;
52878;SDS011;38747;53.140;6.498;2023-04-12T13:21:57;14.50;;;1.33;;
52878;SDS011;38747;53.140;6.498;2023-04-12T13:24:23;11.27;;;1.40;;
52878;SDS011;38747;53.140;6.498;2023-04-12T13:26:49;9.25;;;1.25;;
52878;SDS011;38747;53.140;6.498;2023-04-12T13:29:15;8.93;;;1.52;;
52878;SDS011;38747;53.140;6.498;2023-04-12T13:31:41;6.20;;;1.23;;
52878;SDS011;38747;53.140;6.498;2023-04-12T13:34:07;11.43;;;1.40;;
52878;SDS011;38747;53.140;6.498;2023-04-12T13:36:32;7.55;;;1.10;;
52878;SDS011;38747;53.140;6.498;2023-04-12T13:38:58;10.93;;;1.80;;
52878;SDS011;38747;53.140;6.498;2023-04-12T13:41:24;6.32;;;1.17;;
52878;SDS011;38747;53.140;6.498;2023-04-12T13:43:50;7.10;;;1.10;;
52878;SDS011;38747;53.140;6.498;2023-04-12T13:46:15;10.23;;;1.63;;
52878;SDS011;38747;53.140;6.498;2023-04-12T13:48:41;5.90;;;1.00;;
52878;SDS011;38747;53.140;6.498;2023-04-12T13:51:07;6.68;;;1.30;;
52878;SDS011;38747;53.140;6.498;2023-04-12T13:53:34;7.28;;;1.08;;
52878;SDS011;38747;53.140;6.498;2023-04-12T13:56:00;6.73;;;1.00;;
52878;SDS011;38747;53.140;6.498;2023-04-12T13:58:26;8.60;;;1.08;;
52878;SDS011;38747;53.140;6.498;2023-04-12T14:00:52;6.97;;;1.15;;
52878;SDS011;38747;53.140;6.498;2023-04-12T14:03:20;5.75;;;1.17;;
52878;SDS011;38747;53.140;6.498;2023-04-12T14:05:46;7.73;;;1.03;;
52878;SDS011;38747;53.140;6.498;2023-04-12T14:08:12;9.40;;;1.30;;
52878;SDS011;38747;53.140;6.498;2023-04-12T14:10:37;8.23;;;1.20;;
52878;SDS011;38747;53.140;6.498;2023-04-12T14:13:03;10.05;;;1.27;;
52878;SDS011;38747;53.140;6.498;2023-04-12T14:15:29;6.53;;;1.23;;
52878;SDS011;38747;53.140;6.498;2023-04-12T14:17:54;6.68;;;1.20;;
52878;SDS011;38747;53.140;6.498;2023-04-12T14:20:20;10.50;;;1.50;;
52878;SDS011;38747;53.140;6.498;2023-04-12T14:22:47;9.85;;;1.30;;
52878;SDS011;38747;53.140;6.498;2023-04-12T14:25:13;5.85;;;1.15;;
52878;SDS011;38747;53.140;6.498;2023-04-12T14:27:39;7.47;;;1.30;;
52878;SDS011;38747;53.140;6.498;2023-04-12T14:30:05;9.53;;;1.37;;
52878;SDS011;38747;53.140;6.498;2023-04-12T14:32:31;9.60;;;1.08;;
52878;SDS011;38747;53.140;6.498;2023-04-12T14:34:57;8.73;;;1.20;;
52878;SDS011;38747;53.140;6.498;2023-04-12T14:37:23;8.77;;;1.10;;
52878;SDS011;38747;53.140;6.498;2023-04-12T14:39:49;11.02;;;1.40;;
52878;SDS011;38747;53.140;6.498;2023-04-12T14:42:17;9.20;;;0.97;;
52878;SDS011;38747;53.140;6.498;2023-04-12T14:44:42;9.50;;;1.30;;
52878;SDS011;38747;53.140;6.498;2023-04-12T14:47:08;9.80;;;1.50;;
52878;SDS011;38747;53.140;6.498;2023-04-12T14:49:33;9.43;;;1.17;;
52878;SDS011;38747;53.140;6.498;2023-04-12T14:51:59;8.63;;;1.20;;
52878;SDS011;38747;53.140;6.498;2023-04-12T14:54:25;13.27;;;1.40;;
52878;SDS011;38747;53.140;6.498;2023-04-12T14:56:51;9.23;;;1.33;;
52878;SDS011;38747;53.140;6.498;2023-04-12T14:59:17;10.17;;;1.37;;
52878;SDS011;38747;53.140;6.498;2023-04-12T15:01:42;7.57;;;1.30;;
52878;SDS011;38747;53.140;6.498;2023-04-12T15:04:08;8.10;;;1.10;;
52878;SDS011;38747;53.140;6.498;2023-04-12T15:06:34;8.88;;;1.40;;
52878;SDS011;38747;53.140;6.498;2023-04-12T15:09:06;9.90;;;1.30;;
52878;SDS011;38747;53.140;6.498;2023-04-12T15:11:33;10.30;;;1.63;;
52878;SDS011;38747;53.140;6.498;2023-04-12T15:13:59;10.07;;;1.58;;
52878;SDS011;38747;53.140;6.498;2023-04-12T15:16:27;11.23;;;1.50;;
52878;SDS011;38747;53.140;6.498;2023-04-12T15:18:53;7.07;;;0.90;;
52878;SDS011;38747;53.140;6.498;2023-04-12T15:21:19;9.77;;;1.08;;